Time;durP1;ratioP1;P1;durP2;ratioP2;P2;SDS_P1;SDS_P2;PMS_P1;PMS_P2;Temp;Humidity;BMP_temperature;BMP_pressure;BME280_temperature;BME280_humidity;BME280_pressure;Samples;Min_cycle;Max_cycle;Signal;HPM_P1;HPM_P2
2024/02/26 00:01:22;;;;;;;;;;;;;;;6.18;87.98;98693.25;5117953;28;19920;-67
2024/02/26 00:03:51;;;;;;;;;;;;;;;6.18;88.41;98689.06;5117900;28;19927;-66
2024/02/26 00:06:20;;;;;;;;;;;;;;;6.16;88.05;98674.69;5117917;28;20340;-67
2024/02/26 00:08:49;;;;;;;;;;;;;;;6.12;88.25;98673.84;5118451;28;20006;-66
2024/02/26 00:11:19;;;;;;;;;;;;;;;6.08;88.26;98670.47;5116902;28;19920;-67
2024/02/26 00:13:47;;;;;;;;;;;;;;;6.07;88.29;98665.38;5119178;28;19942;-67
2024/02/26 00:16:15;;;;;;;;;;;;;;;6.07;88.42;98673.84;5117698;28;20266;-67
2024/02/26 00:18:44;;;;;;;;;;;;;;;6.05;88.34;98667.06;5118072;28;19920;-66
2024/02/26 00:21:17;;;;;;;;;;;;;;;6.02;88.20;98667.09;5118289;28;19965;-67
2024/02/26 00:23:46;;;;;;;;;;;;;;;5.98;88.45;98670.44;5116495;28;19927;-67
2024/02/26 00:26:15;;;;;;;;;;;;;;;5.93;88.07;98672.13;5116215;28;20026;-67
2024/02/26 00:28:45;;;;;;;;;;;;;;;5.91;88.25;98678.88;5118128;28;20308;-67
2024/02/26 00:31:12;;;;;;;;;;;;;;;5.95;88.50;98675.53;5117741;28;19923;-67
2024/02/26 00:33:40;;;;;;;;;;;;;;;5.90;88.56;98672.16;5117752;28;19927;-66
2024/02/26 00:36:09;;;;;;;;;;;;;;;5.86;88.50;98666.22;5117637;28;20346;-66
2024/02/26 00:38:39;;;;;;;;;;;;;;;5.88;88.56;98658.63;5117573;28;19920;-66
2024/02/26 00:41:08;;;;;;;;;;;;;;;5.83;88.15;98660.28;5117672;28;19919;-67
2024/02/26 00:43:37;;;;;;;;;;;;;;;5.85;88.24;98654.41;5117101;28;19927;-67
2024/02/26 00:46:07;;;;;;;;;;;;;;;5.77;88.25;98660.25;5117446;28;19926;-67
2024/02/26 00:48:36;;;;;;;;;;;;;;;5.77;88.49;98657.72;5117440;28;19985;-66
2024/02/26 00:51:05;;;;;;;;;;;;;;;5.76;88.40;98658.59;5116390;28;20004;-66
2024/02/26 00:53:34;;;;;;;;;;;;;;;5.62;88.04;98662.75;5115728;28;19976;-67
2024/02/26 00:56:02;;;;;;;;;;;;;;;5.59;88.69;98655.19;5116090;28;19919;-67
2024/02/26 00:58:31;;;;;;;;;;;;;;;5.59;88.36;98650.94;5116856;28;19970;-67
2024/02/26 01:01:00;;;;;;;;;;;;;;;5.56;88.49;98656.00;5117181;28;19923;-67
2024/02/26 01:03:30;;;;;;;;;;;;;;;5.56;88.27;98650.09;5116700;28;19926;-67
2024/02/26 01:05:58;;;;;;;;;;;;;;;5.55;88.70;98641.66;5116773;28;19920;-67
2024/02/26 01:08:27;;;;;;;;;;;;;;;5.46;87.92;98649.22;5116736;28;20456;-67
2024/02/26 01:10:55;;;;;;;;;;;;;;;5.45;88.27;98651.78;5117319;28;19927;-66
2024/02/26 01:13:24;;;;;;;;;;;;;;;5.48;88.91;98651.75;5116977;28;19923;-67
2024/02/26 01:15:53;;;;;;;;;;;;;;;5.43;88.50;98645.00;5115667;28;19920;-66
2024/02/26 01:18:22;;;;;;;;;;;;;;;5.44;88.49;98640.81;5116898;28;19959;-67
2024/02/26 01:20:54;;;;;;;;;;;;;;;5.45;88.35;98644.19;5116758;28;19984;-67
2024/02/26 01:23:22;;;;;;;;;;;;;;;5.37;88.63;98639.09;5116446;28;19920;-66
2024/02/26 01:25:51;;;;;;;;;;;;;;;5.34;88.67;98645.00;5115105;28;19926;-67
2024/02/26 01:28:20;;;;;;;;;;;;;;;5.31;88.58;98637.38;5116349;28;20418;-66
2024/02/26 01:30:48;;;;;;;;;;;;;;;5.25;88.67;98639.91;5116663;28;19927;-66
2024/02/26 01:33:17;;;;;;;;;;;;;;;5.18;88.62;98648.28;5116545;28;19927;-66
2024/02/26 01:35:46;;;;;;;;;;;;;;;5.16;88.52;98649.16;5116487;28;20022;-66
2024/02/26 01:38:16;;;;;;;;;;;;;;;5.12;88.68;98643.22;5116330;28;19930;-66
2024/02/26 01:40:44;;;;;;;;;;;;;;;5.13;88.70;98637.34;5116363;28;19930;-66
2024/02/26 01:43:13;;;;;;;;;;;;;;;5.12;88.72;98635.63;5116163;28;20373;-66
2024/02/26 01:45:41;;;;;;;;;;;;;;;5.21;88.84;98627.22;5114748;28;20040;-66
2024/02/26 01:48:11;;;;;;;;;;;;;;;5.23;88.93;98631.44;5116204;28;19919;-66
2024/02/26 01:50:41;;;;;;;;;;;;;;;5.27;88.95;98623.03;5116541;28;19927;-66
2024/02/26 01:53:10;;;;;;;;;;;;;;;5.25;88.83;98622.19;5116257;28;20010;-67
2024/02/26 01:55:40;;;;;;;;;;;;;;;5.20;89.10;98626.41;5115837;28;20362;-67
2024/02/26 01:58:08;;;;;;;;;;;;;;;5.10;89.05;98629.72;5116011;28;19973;-66
2024/02/26 02:00:37;;;;;;;;;;;;;;;5.08;89.12;98623.81;5097748;28;19926;-66
2024/02/26 02:03:06;;;;;;;;;;;;;;;5.12;88.84;98622.97;5114752;28;19923;-66
2024/02/26 02:05:41;;;;;;;;;;;;;;;5.20;89.32;98631.47;5114300;28;19924;-66
2024/02/26 02:08:12;;;;;;;;;;;;;;;5.23;89.35;98628.09;5114085;28;20281;-67
2024/02/26 02:10:42;;;;;;;;;;;;;;;5.24;89.45;98635.66;5114124;28;19922;-67
2024/02/26 02:13:10;;;;;;;;;;;;;;;5.27;89.46;98622.19;5097595;28;20323;-66
2024/02/26 02:15:39;;;;;;;;;;;;;;;5.29;88.99;98618.84;5116092;28;19919;-66
2024/02/26 02:18:08;;;;;;;;;;;;;;;5.30;89.84;98617.97;5115670;28;20373;-66
2024/02/26 02:20:38;;;;;;;;;;;;;;;5.25;89.53;98614.63;5115336;28;19972;-66
2024/02/26 02:23:06;;;;;;;;;;;;;;;5.20;89.51;98616.28;5115947;28;19926;-66
2024/02/26 02:25:34;;;;;;;;;;;;;;;5.19;89.45;98606.13;5114937;28;19923;-67
2024/02/26 02:28:03;;;;;;;;;;;;;;;5.13;89.53;98603.59;5115561;28;19920;-66
2024/02/26 02:30:33;;;;;;;;;;;;;;;5.14;89.52;98606.13;5115430;28;19941;-66
2024/02/26 02:33:02;;;;;;;;;;;;;;;5.07;89.51;98593.47;5115439;28;20290;-66
2024/02/26 02:35:31;;;;;;;;;;;;;;;5.06;89.61;98602.72;5115435;28;19980;-66
2024/02/26 02:38:01;;;;;;;;;;;;;;;5.02;89.65;98601.03;5115375;27;19972;-66
2024/02/26 02:40:29;;;;;;;;;;;;;;;5.03;89.57;98596.81;5115554;28;19973;-66
2024/02/26 02:42:58;;;;;;;;;;;;;;;4.99;89.67;98598.47;5115809;28;19920;-66
2024/02/26 02:45:27;;;;;;;;;;;;;;;4.96;89.70;98592.59;5114903;28;19927;-66
2024/02/26 02:47:54;;;;;;;;;;;;;;;4.94;89.42;98602.69;5115182;28;19967;-66
2024/02/26 02:50:23;;;;;;;;;;;;;;;4.92;89.71;98598.47;5115109;28;19965;-66
2024/02/26 02:52:51;;;;;;;;;;;;;;;4.89;89.31;98599.31;5113474;28;20289;-66
2024/02/26 02:55:21;;;;;;;;;;;;;;;4.92;89.44;98604.34;5115133;28;20268;-68
2024/02/26 02:57:49;;;;;;;;;;;;;;;4.90;89.43;98600.97;5113886;28;19947;-66
2024/02/26 03:00:18;;;;;;;;;;;;;;;4.84;89.60;98593.38;5115090;28;19923;-66
2024/02/26 03:02:47;;;;;;;;;;;;;;;4.85;89.52;98590.00;5114979;28;19926;-66
2024/02/26 03:05:16;;;;;;;;;;;;;;;4.87;89.86;98593.38;5112900;28;19925;-66
2024/02/26 03:07:44;;;;;;;;;;;;;;;4.84;89.71;98595.91;5113592;28;20357;-66
2024/02/26 03:10:13;;;;;;;;;;;;;;;4.84;89.74;98590.84;5114831;28;19927;-66
2024/02/26 03:12:43;;;;;;;;;;;;;;;4.83;89.87;98596.75;5114891;28;20365;-66
2024/02/26 03:15:12;;;;;;;;;;;;;;;4.85;89.50;98590.00;5113350;28;20361;-66
2024/02/26 03:17:40;;;;;;;;;;;;;;;4.82;90.03;98592.53;5113650;28;19919;-66
2024/02/26 03:20:10;;;;;;;;;;;;;;;4.90;90.33;98590.88;5114522;28;19931;-66
2024/02/26 03:22:39;;;;;;;;;;;;;;;4.87;90.07;98595.91;5114788;28;19970;-66
2024/02/26 03:25:08;;;;;;;;;;;;;;;4.86;90.04;98594.22;5114245;28;19919;-66
2024/02/26 03:27:37;;;;;;;;;;;;;;;4.83;90.14;98585.78;5114698;28;19953;-66
2024/02/26 03:30:07;;;;;;;;;;;;;;;4.83;90.38;98591.69;5113522;28;19930;-66
2024/02/26 03:32:36;;;;;;;;;;;;;;;4.84;90.42;98590.00;5114602;28;19946;-66
2024/02/26 03:35:07;;;;;;;;;;;;;;;4.82;90.45;98587.47;5113203;28;19935;-66
2024/02/26 03:37:35;;;;;;;;;;;;;;;4.81;90.54;98584.94;5114306;28;19923;-66
2024/02/26 03:40:04;;;;;;;;;;;;;;;4.85;90.41;98592.53;5114180;28;20285;-66
2024/02/26 03:42:32;;;;;;;;;;;;;;;4.88;90.39;98582.44;5114516;28;19942;-66
2024/02/26 03:45:01;;;;;;;;;;;;;;;4.86;90.22;98586.66;5114262;28;19923;-66
2024/02/26 03:47:31;;;;;;;;;;;;;;;4.82;90.29;98586.63;5114152;28;20464;-66
2024/02/26 03:50:00;;;;;;;;;;;;;;;4.77;90.53;98579.03;5114499;28;20442;-66
2024/02/26 03:52:28;;;;;;;;;;;;;;;4.74;90.41;98587.44;5113150;28;19919;-66
2024/02/26 03:54:57;;;;;;;;;;;;;;;4.70;90.50;98579.84;5096217;28;20022;-66
2024/02/26 03:57:25;;;;;;;;;;;;;;;4.70;90.35;98582.38;5114202;28;19924;-66
2024/02/26 03:59:53;;;;;;;;;;;;;;;4.70;90.53;98578.13;5114097;28;20368;-66
2024/02/26 04:02:22;;;;;;;;;;;;;;;4.69;90.60;98571.41;5114456;28;20308;-67
2024/02/26 04:04:52;;;;;;;;;;;;;;;4.68;90.36;98569.72;5114162;28;19923;-66
2024/02/26 04:07:21;;;;;;;;;;;;;;;4.67;90.44;98573.09;5114703;28;19973;-65
2024/02/26 04:09:49;;;;;;;;;;;;;;;4.68;90.34;98564.66;5114093;28;19919;-66
2024/02/26 04:12:18;;;;;;;;;;;;;;;4.67;90.64;98564.66;5114272;28;19965;-66
2024/02/26 04:14:46;;;;;;;;;;;;;;;4.64;90.49;98562.13;5113359;28;20349;-66
2024/02/26 04:17:15;;;;;;;;;;;;;;;4.62;90.58;98566.31;5114536;28;19923;-66
2024/02/26 04:19:43;;;;;;;;;;;;;;;4.61;90.45;98567.16;5112909;28;19920;-66
2024/02/26 04:22:14;;;;;;;;;;;;;;;4.64;90.42;98569.69;5112099;28;19923;-66
2024/02/26 04:24:42;;;;;;;;;;;;;;;4.59;90.33;98566.31;5113931;28;20366;-66
2024/02/26 04:27:11;;;;;;;;;;;;;;;4.61;90.26;98572.19;5113979;28;19923;-66
2024/02/26 04:29:39;;;;;;;;;;;;;;;4.62;90.56;98574.75;5114142;28;19959;-66
2024/02/26 04:32:08;;;;;;;;;;;;;;;4.54;90.47;98570.47;5113999;28;19926;-66
2024/02/26 04:34:37;;;;;;;;;;;;;;;4.54;90.30;98566.28;5117677;28;19931;-66
2024/02/26 04:37:05;;;;;;;;;;;;;;;4.55;90.27;98564.59;5117682;28;19924;-66
2024/02/26 04:39:35;;;;;;;;;;;;;;;4.51;90.27;98566.25;5117687;28;19926;-66
2024/02/26 04:42:04;;;;;;;;;;;;;;;4.50;90.51;98568.78;5117920;28;19968;-66
2024/02/26 04:44:33;;;;;;;;;;;;;;;4.46;90.35;98569.63;5117394;28;19920;-66
2024/02/26 04:47:01;;;;;;;;;;;;;;;4.52;90.39;98562.06;5117179;28;19923;-66
2024/02/26 04:49:30;;;;;;;;;;;;;;;4.55;90.26;98567.13;5117778;28;19919;-66
2024/02/26 04:51:58;;;;;;;;;;;;;;;4.53;90.08;98571.34;5117343;28;19919;-66
2024/02/26 04:54:27;;;;;;;;;;;;;;;4.53;90.25;98568.81;5117092;28;19920;-66
2024/02/26 04:56:57;;;;;;;;;;;;;;;4.51;90.19;98570.50;5117296;28;19919;-66
2024/02/26 04:59:25;;;;;;;;;;;;;;;4.48;90.15;98565.41;5117309;28;20036;-66
2024/02/26 05:01:53;;;;;;;;;;;;;;;4.47;90.18;98567.09;5116974;28;19926;-66
2024/02/26 05:04:22;;;;;;;;;;;;;;;4.45;90.10;98570.44;5117072;28;19919;-66
2024/02/26 05:06:50;;;;;;;;;;;;;;;4.40;90.38;98565.38;5116817;28;19971;-66
2024/02/26 05:09:19;;;;;;;;;;;;;;;4.42;90.69;98570.41;5117093;28;19926;-66
2024/02/26 05:11:48;;;;;;;;;;;;;;;4.42;90.54;98562.84;5117339;28;19920;-66
2024/02/26 05:14:17;;;;;;;;;;;;;;;4.40;91.11;98575.47;5116924;28;19931;-66
2024/02/26 05:16:46;;;;;;;;;;;;;;;4.40;90.28;98578.00;5116959;28;19920;-66
2024/02/26 05:19:15;;;;;;;;;;;;;;;4.40;90.49;98572.09;5116589;28;19956;-66
2024/02/26 05:21:44;;;;;;;;;;;;;;;4.43;90.88;98577.16;5115201;28;19943;-66
2024/02/26 05:24:12;;;;;;;;;;;;;;;4.45;90.81;98575.50;5116536;28;20273;-66
2024/02/26 05:26:40;;;;;;;;;;;;;;;4.49;90.86;98574.66;5116325;28;19927;-66
2024/02/26 05:29:09;;;;;;;;;;;;;;;4.53;90.57;98574.72;5098079;28;19919;-66
2024/02/26 05:31:39;;;;;;;;;;;;;;;4.57;90.93;98570.50;5116664;28;20419;-66
2024/02/26 05:34:07;;;;;;;;;;;;;;;4.60;90.93;98570.53;5116686;28;19919;-66
2024/02/26 05:36:36;;;;;;;;;;;;;;;4.63;90.96;98575.59;5116522;28;20014;-66
2024/02/26 05:39:04;;;;;;;;;;;;;;;4.66;91.02;98575.59;5116445;28;19990;-66
2024/02/26 05:41:33;;;;;;;;;;;;;;;4.69;90.85;98591.63;5116065;28;19919;-66
2024/02/26 05:44:02;;;;;;;;;;;;;;;4.75;91.16;98585.78;5115053;28;20378;-67
2024/02/26 05:46:30;;;;;;;;;;;;;;;4.78;90.98;98588.28;5115982;28;19927;-66
2024/02/26 05:49:00;;;;;;;;;;;;;;;4.82;91.33;98591.69;5116222;28;19927;-66
2024/02/26 05:51:28;;;;;;;;;;;;;;;4.82;91.21;98600.13;5116019;28;19919;-66
2024/02/26 05:53:57;;;;;;;;;;;;;;;4.89;91.65;98603.50;5116332;28;19923;-66
2024/02/26 05:56:26;;;;;;;;;;;;;;;4.92;91.56;98599.28;5116500;28;19920;-66
2024/02/26 05:58:54;;;;;;;;;;;;;;;4.96;91.55;98606.06;5115710;28;20284;-66
2024/02/26 06:01:24;;;;;;;;;;;;;;;5.00;91.91;98602.72;5116119;28;19958;-66
2024/02/26 06:03:52;;;;;;;;;;;;;;;5.07;91.78;98596.84;5115728;28;19927;-66
2024/02/26 06:06:23;;;;;;;;;;;;;;;5.10;91.71;98599.38;5115723;28;20353;-66
2024/02/26 06:08:52;;;;;;;;;;;;;;;5.15;91.74;98592.66;5115964;28;19920;-66
2024/02/26 06:11:22;;;;;;;;;;;;;;;5.21;91.89;98596.88;5114621;28;19919;-66
2024/02/26 06:13:51;;;;;;;;;;;;;;;5.26;92.13;98596.06;5115877;28;19920;-66
2024/02/26 06:16:19;;;;;;;;;;;;;;;5.40;92.17;98596.06;5115661;28;19919;-66
2024/02/26 06:18:48;;;;;;;;;;;;;;;5.84;93.19;98593.63;5115319;28;19920;-66
2024/02/26 06:21:16;;;;;;;;;;;;;;;6.30;93.46;98597.00;5115325;28;20270;-66
2024/02/26 06:23:46;;;;;;;;;;;;;;;6.59;92.93;98596.13;5115907;28;20377;-66
2024/02/26 06:26:15;;;;;;;;;;;;;;;7.08;94.40;98595.94;5115104;28;19920;-66
2024/02/26 06:28:44;;;;;;;;;;;;;;;7.53;95.35;98600.78;5114204;28;19920;-66
2024/02/26 06:31:13;;;;;;;;;;;;;;;7.89;95.84;98605.59;5115480;28;19945;-66
2024/02/26 06:33:41;;;;;;;;;;;;;;;8.06;95.85;98606.28;5115362;28;19920;-66
2024/02/26 06:36:10;;;;;;;;;;;;;;;8.36;96.48;98609.47;5115375;28;19920;-66
2024/02/26 06:38:38;;;;;;;;;;;;;;;8.53;96.24;98605.91;5115086;28;19920;-66
2024/02/26 06:41:08;;;;;;;;;;;;;;;8.64;96.72;98605.78;5115259;28;19919;-65
2024/02/26 06:43:37;;;;;;;;;;;;;;;8.78;95.85;98616.69;5115062;28;19927;-66
2024/02/26 06:46:06;;;;;;;;;;;;;;;8.86;95.75;98612.34;5114786;28;20365;-66
2024/02/26 06:48:36;;;;;;;;;;;;;;;8.95;95.56;98619.84;5115194;28;20018;-66
2024/02/26 06:51:05;;;;;;;;;;;;;;;9.01;95.16;98614.72;5115190;28;19919;-66
2024/02/26 06:53:33;;;;;;;;;;;;;;;9.07;95.39;98612.09;5115152;28;19926;-66
2024/02/26 06:56:02;;;;;;;;;;;;;;;9.12;94.82;98612.88;5114402;28;20022;-67
2024/02/26 06:58:34;;;;;;;;;;;;;;;9.18;94.23;98615.34;5114940;28;19982;-66
2024/02/26 07:01:02;;;;;;;;;;;;;;;9.24;94.04;98612.72;5114976;28;20273;-66
2024/02/26 07:03:30;;;;;;;;;;;;;;;9.27;94.03;98611.84;5114884;28;19926;-66
2024/02/26 07:05:59;;;;;;;;;;;;;;;9.31;93.35;98614.31;5114831;28;19923;-67
2024/02/26 07:08:27;;;;;;;;;;;;;;;9.37;93.17;98610.88;5114478;28;19938;-66
2024/02/26 07:10:56;;;;;;;;;;;;;;;9.41;92.84;98610.81;5115060;28;20010;-66
2024/02/26 07:13:24;;;;;;;;;;;;;;;9.44;92.99;98610.78;5113065;28;20010;-67
2024/02/26 07:15:54;;;;;;;;;;;;;;;9.47;92.20;98604.78;5114733;28;19920;-66
2024/02/26 07:18:23;;;;;;;;;;;;;;;9.49;91.67;98614.94;5115053;28;19920;-66
2024/02/26 07:20:51;;;;;;;;;;;;;;;9.51;91.42;98620.84;5112676;28;19920;-66
2024/02/26 07:23:19;;;;;;;;;;;;;;;9.51;91.34;98616.63;5114674;28;19920;-66
2024/02/26 07:25:52;;;;;;;;;;;;;;;9.55;91.38;98619.97;5114181;28;20392;-66
2024/02/26 07:28:21;;;;;;;;;;;;;;;9.64;90.49;98622.38;5113740;28;19920;-66
2024/02/26 07:30:53;;;;;;;;;;;;;;;9.75;90.28;98623.06;5114433;28;19920;-67
2024/02/26 07:33:30;;;;;;;;;;;;;;;9.85;89.80;98622.91;5095882;28;19963;-67
2024/02/26 07:36:00;;;;;;;;;;;;;;;9.94;89.10;98624.47;5114576;28;19920;-66
2024/02/26 07:38:28;;;;;;;;;;;;;;;10.00;88.80;98622.69;5114510;28;19981;-66
2024/02/26 07:41:10;;;;;;;;;;;;;;;10.04;88.22;98618.38;5112916;28;19920;-66
2024/02/26 07:43:38;;;;;;;;;;;;;;;10.13;88.16;98618.25;5114363;28;19926;-67
2024/02/26 07:46:06;;;;;;;;;;;;;;;10.17;88.01;98619.91;5114143;28;19926;-66
2024/02/26 07:48:36;;;;;;;;;;;;;;;10.20;87.73;98619.84;5113876;28;19973;-67
2024/02/26 07:51:05;;;;;;;;;;;;;;;10.30;87.09;98615.44;5113143;28;19919;-66
2024/02/26 07:53:33;;;;;;;;;;;;;;;10.40;86.91;98617.81;5113264;28;19927;-66
2024/02/26 07:56:03;;;;;;;;;;;;;;;10.55;86.71;98616.69;5114025;28;19919;-66
2024/02/26 07:58:33;;;;;;;;;;;;;;;10.69;86.42;98630.91;5114419;28;19923;-67
2024/02/26 08:01:01;;;;;;;;;;;;;;;10.82;85.45;98625.56;5114342;28;19942;-66
2024/02/26 08:03:30;;;;;;;;;;;;;;;10.98;85.02;98634.59;5114367;28;19920;-66
2024/02/26 08:06:00;;;;;;;;;;;;;;;11.15;84.93;98625.75;5114091;28;19926;-67
2024/02/26 08:08:29;;;;;;;;;;;;;;;11.27;83.91;98624.66;5117609;28;20346;-67
2024/02/26 08:10:59;;;;;;;;;;;;;;;11.34;83.16;98621.09;5118050;28;20014;-66
2024/02/26 08:13:27;;;;;;;;;;;;;;;11.41;82.67;98618.41;5118088;28;19966;-66
2024/02/26 08:15:56;;;;;;;;;;;;;;;11.52;81.86;98614.78;5118365;28;19980;-67
2024/02/26 08:18:24;;;;;;;;;;;;;;;11.69;82.17;98622.91;5117657;27;19920;-67
2024/02/26 08:20:53;;;;;;;;;;;;;;;11.69;80.64;98616.09;5117953;28;19972;-66
2024/02/26 08:23:22;;;;;;;;;;;;;;;11.78;79.81;98628.66;5117972;28;19919;-66
2024/02/26 08:25:51;;;;;;;;;;;;;;;11.79;79.22;98620.13;5116245;28;20023;-67
2024/02/26 08:28:20;;;;;;;;;;;;;;;11.91;79.82;98624.97;5117650;28;19926;-66
2024/02/26 08:30:48;;;;;;;;;;;;;;;12.02;78.81;98628.09;5116485;28;19966;-68
2024/02/26 08:33:17;;;;;;;;;;;;;;;12.00;79.33;98624.75;5117703;28;19927;-67
2024/02/26 08:35:46;;;;;;;;;;;;;;;12.00;79.50;98618.78;5117310;28;19920;-66
2024/02/26 08:38:14;;;;;;;;;;;;;;;12.09;79.29;98614.28;5116220;28;20021;-67
2024/02/26 08:40:45;;;;;;;;;;;;;;;12.23;78.83;98619.09;5117236;28;20415;-68
2024/02/26 08:43:13;;;;;;;;;;;;;;;12.27;78.11;98617.28;5117395;28;19919;-69
2024/02/26 08:45:41;;;;;;;;;;;;;;;12.34;78.37;98614.53;5117123;28;19924;-68
2024/02/26 08:48:10;;;;;;;;;;;;;;;12.38;77.82;98620.44;5117187;28;19919;-67
2024/02/26 08:50:38;;;;;;;;;;;;;;;12.25;77.21;98624.16;5117438;28;20297;-69
2024/02/26 08:53:07;;;;;;;;;;;;;;;12.25;77.76;98619.06;5116929;28;20380;-67
2024/02/26 08:55:35;;;;;;;;;;;;;;;12.40;77.82;98613.56;5117254;28;20004;-67
2024/02/26 08:58:05;;;;;;;;;;;;;;;12.49;77.72;98626.13;5117215;27;19920;-67
2024/02/26 09:00:34;;;;;;;;;;;;;;;12.61;78.07;98621.53;5115729;28;19920;-67
2024/02/26 09:03:02;;;;;;;;;;;;;;;12.63;76.00;98627.44;5117184;28;19919;-67
2024/02/26 09:05:33;;;;;;;;;;;;;;;12.65;76.10;98622.28;5116947;28;20269;-68
2024/02/26 09:08:01;;;;;;;;;;;;;;;12.59;76.03;98619.91;5116657;28;19920;-68
2024/02/26 09:10:30;;;;;;;;;;;;;;;12.65;75.99;98609.47;5116988;27;20038;-68
2024/02/26 09:12:58;;;;;;;;;;;;;;;12.75;74.79;98626.28;5116931;28;20385;-68
2024/02/26 09:15:29;;;;;;;;;;;;;;;12.75;74.91;98610.91;5116560;28;19920;-67
2024/02/26 09:17:58;;;;;;;;;;;;;;;12.71;75.01;98615.31;5116559;28;19923;-69
2024/02/26 09:20:26;;;;;;;;;;;;;;;12.79;75.04;98600.56;5116511;28;20312;-66
2024/02/26 09:22:55;;;;;;;;;;;;;;;12.88;75.21;98596.91;5116731;28;20002;-68
2024/02/26 09:25:23;;;;;;;;;;;;;;;12.91;74.92;98601.13;5116442;28;19920;-67
2024/02/26 09:27:51;;;;;;;;;;;;;;;12.90;74.10;98605.41;5116638;28;19920;-66
2024/02/26 09:30:20;;;;;;;;;;;;;;;12.94;72.93;98606.97;5116739;28;19930;-65
2024/02/26 09:32:52;;;;;;;;;;;;;;;13.04;73.72;98608.41;5116462;28;19919;-65
2024/02/26 09:35:21;;;;;;;;;;;;;;;13.27;73.15;98611.19;5116588;28;19920;-67
2024/02/26 09:37:50;;;;;;;;;;;;;;;13.34;71.84;98615.25;5116330;28;19930;-66
2024/02/26 09:40:19;;;;;;;;;;;;;;;13.40;72.19;98615.09;5116382;28;19919;-67
2024/02/26 09:42:47;;;;;;;;;;;;;;;13.49;72.00;98610.56;5116474;28;19919;-68
2024/02/26 09:45:19;;;;;;;;;;;;;;;13.60;72.80;98616.22;5116274;28;19920;-66
2024/02/26 09:47:49;;;;;;;;;;;;;;;13.42;73.09;98621.00;5116317;28;19942;-67
2024/02/26 09:50:22;;;;;;;;;;;;;;;13.30;73.13;98631.59;5116104;28;19923;-68
2024/02/26 09:52:52;;;;;;;;;;;;;;;13.21;71.88;98626.75;5115918;28;19919;-66
2024/02/26 09:55:21;;;;;;;;;;;;;;;13.24;72.24;98634.34;5114890;28;19919;-66
2024/02/26 09:57:52;;;;;;;;;;;;;;;13.22;73.52;98632.72;5116387;28;19985;-68
2024/02/26 10:00:22;;;;;;;;;;;;;;;13.09;72.19;98631.38;5116466;28;19959;-68
2024/02/26 10:02:52;;;;;;;;;;;;;;;13.22;72.27;98623.28;5116302;28;19943;-66
2024/02/26 10:05:22;;;;;;;;;;;;;;;13.20;73.05;98624.22;5115833;28;20017;-66
2024/02/26 10:07:51;;;;;;;;;;;;;;;13.33;73.38;98631.53;5115689;28;19920;-67
2024/02/26 10:10:20;;;;;;;;;;;;;;;13.40;72.06;98612.53;5116178;28;19927;-67
2024/02/26 10:12:48;;;;;;;;;;;;;;;13.43;72.05;98620.13;5114179;28;20288;-67
2024/02/26 10:15:17;;;;;;;;;;;;;;;13.59;71.75;98627.34;5115700;28;19923;-68
2024/02/26 10:17:45;;;;;;;;;;;;;;;13.73;70.61;98620.06;5114420;28;19927;-67
2024/02/26 10:20:15;;;;;;;;;;;;;;;13.93;70.66;98622.88;5115853;28;20404;-68
2024/02/26 10:22:47;;;;;;;;;;;;;;;13.98;68.83;98624.44;5115698;28;19973;-66
2024/02/26 10:25:15;;;;;;;;;;;;;;;14.04;69.42;98638.78;5115482;28;20382;-69
2024/02/26 10:27:45;;;;;;;;;;;;;;;14.00;68.47;98619.25;5115588;28;19946;-67
2024/02/26 10:30:17;;;;;;;;;;;;;;;14.09;69.01;98618.94;5114506;28;19919;-68
2024/02/26 10:32:46;;;;;;;;;;;;;;;14.19;69.10;98612.63;5097122;28;19927;-67
2024/02/26 10:35:15;;;;;;;;;;;;;;;14.34;68.86;98625.00;5115435;28;19927;-67
2024/02/26 10:37:46;;;;;;;;;;;;;;;14.30;69.09;98618.28;5115312;28;19920;-68
2024/02/26 10:40:15;;;;;;;;;;;;;;;14.21;69.41;98623.69;5115355;28;19919;-67
2024/02/26 10:42:45;;;;;;;;;;;;;;;14.09;68.65;98618.94;5097036;28;19967;-68
2024/02/26 10:45:13;;;;;;;;;;;;;;;13.79;67.86;98614.78;5115122;28;20468;-67
2024/02/26 10:47:42;;;;;;;;;;;;;;;13.74;69.99;98621.78;5115101;28;20010;-67
2024/02/26 10:50:14;;;;;;;;;;;;;;;13.78;69.91;98618.22;5115090;28;20319;-65
2024/02/26 10:52:46;;;;;;;;;;;;;;;13.81;69.49;98618.13;5115066;28;20289;-67
2024/02/26 10:55:17;;;;;;;;;;;;;;;13.84;69.78;98607.78;5113413;28;19919;-66
2024/02/26 10:57:47;;;;;;;;;;;;;;;13.84;69.31;98610.34;5115141;28;19969;-67
2024/02/26 11:00:16;;;;;;;;;;;;;;;13.89;69.37;98616.19;5114901;28;20389;-68
2024/02/26 11:02:46;;;;;;;;;;;;;;;13.98;68.68;98615.88;5114982;28;19920;-70
2024/02/26 11:05:15;;;;;;;;;;;;;;;14.01;68.05;98616.63;5114861;28;20002;-66
2024/02/26 11:07:46;;;;;;;;;;;;;;;14.03;68.43;98603.75;5114769;28;19941;-66
2024/02/26 11:10:17;;;;;;;;;;;;;;;14.24;68.54;98605.63;5113159;28;19972;-66
2024/02/26 11:12:47;;;;;;;;;;;;;;;14.31;67.66;98604.56;5114807;28;19927;-67
2024/02/26 11:15:16;;;;;;;;;;;;;;;14.43;67.75;98604.16;5096913;28;19924;-67
2024/02/26 11:17:45;;;;;;;;;;;;;;;14.48;65.91;98602.28;5114699;28;19974;-67
2024/02/26 11:20:15;;;;;;;;;;;;;;;14.44;65.22;98590.44;5114680;28;19949;-67
2024/02/26 11:22:44;;;;;;;;;;;;;;;14.43;65.37;98593.03;5113383;28;19920;-68
2024/02/26 11:25:13;;;;;;;;;;;;;;;14.43;64.96;98588.75;5114310;28;19945;-66
2024/02/26 11:27:46;;;;;;;;;;;;;;;14.42;66.22;98588.81;5114341;28;20376;-68
2024/02/26 11:30:15;;;;;;;;;;;;;;;14.36;66.33;98587.28;5114501;28;19924;-66
2024/02/26 11:32:45;;;;;;;;;;;;;;;14.35;66.32;98589.91;5114656;28;20269;-67
2024/02/26 11:35:16;;;;;;;;;;;;;;;14.41;66.21;98590.53;5113312;28;20361;-68
2024/02/26 11:37:52;;;;;;;;;;;;;;;14.21;65.26;98582.63;5108363;28;19920;-67
2024/02/26 11:40:21;;;;;;;;;;;;;;;14.15;66.04;98587.97;5102740;28;20422;-69
2024/02/26 11:42:53;;;;;;;;;;;;;;;14.19;65.41;98589.53;5106614;28;19927;-67
2024/02/26 11:45:41;;;;;;;;;;;;;;;14.20;65.29;98592.94;5107538;28;20022;-67
2024/02/26 11:48:12;;;;;;;;;;;;;;;14.30;65.29;98577.22;5107866;28;20321;-68
2024/02/26 11:50:42;;;;;;;;;;;;;;;14.42;66.29;98587.06;5106003;28;19931;-67
2024/02/26 11:53:29;;;;;;;;;;;;;;;14.39;66.52;98579.50;5098067;28;19927;-67
2024/02/26 11:56:16;;;;;;;;;;;;;;;14.48;66.32;98576.59;5098477;28;19920;-66
2024/02/26 11:58:49;;;;;;;;;;;;;;;14.61;65.50;98562.44;5096795;28;20373;-68
2024/02/26 12:01:36;;;;;;;;;;;;;;;14.82;65.45;98570.28;5096694;28;20361;-67
2024/02/26 12:04:05;;;;;;;;;;;;;;;14.79;65.23;98576.38;5096657;28;20354;-67
2024/02/26 12:06:41;;;;;;;;;;;;;;;14.78;64.99;98572.97;5097765;28;19920;-66
2024/02/26 12:09:10;;;;;;;;;;;;;;;14.83;66.00;98564.28;5096333;28;20289;-66
2024/02/26 12:11:39;;;;;;;;;;;;;;;14.85;64.64;98559.91;5098022;28;19959;-67
2024/02/26 12:14:10;;;;;;;;;;;;;;;14.90;65.75;98563.16;5097775;28;20015;-68
2024/02/26 12:16:39;;;;;;;;;;;;;;;14.81;66.30;98569.44;5097757;28;19920;-66
2024/02/26 12:19:09;;;;;;;;;;;;;;;14.77;65.56;98566.16;5097587;28;19920;-67
2024/02/26 12:21:38;;;;;;;;;;;;;;;14.57;64.75;98571.16;5097692;28;19963;-67
2024/02/26 12:24:16;;;;;;;;;;;;;;;14.40;65.35;98563.19;5097524;28;19920;-67
2024/02/26 12:26:45;;;;;;;;;;;;;;;14.42;66.22;98569.09;5097106;28;19958;-67
2024/02/26 12:29:15;;;;;;;;;;;;;;;14.43;66.08;98563.09;5097212;28;19927;-67
2024/02/26 12:31:44;;;;;;;;;;;;;;;14.50;66.09;98554.28;5095943;28;19920;-67
2024/02/26 12:34:13;;;;;;;;;;;;;;;14.44;65.54;98554.50;5096157;28;20404;-67
2024/02/26 12:36:42;;;;;;;;;;;;;;;14.42;67.03;98555.44;5097310;28;19920;-67
2024/02/26 12:39:10;;;;;;;;;;;;;;;14.32;66.40;98560.06;5097036;28;20003;-67
2024/02/26 12:41:40;;;;;;;;;;;;;;;14.20;66.94;98560.44;5112598;28;19959;-67
2024/02/26 12:44:09;;;;;;;;;;;;;;;14.16;67.66;98552.88;5117324;28;19920;-68
2024/02/26 12:46:39;;;;;;;;;;;;;;;14.22;67.61;98545.81;5116257;28;19926;-67
2024/02/26 12:49:07;;;;;;;;;;;;;;;14.46;67.17;98560.41;5116220;28;19926;-67
2024/02/26 12:51:36;;;;;;;;;;;;;;;14.66;67.21;98550.28;5115873;28;19920;-68
2024/02/26 12:54:04;;;;;;;;;;;;;;;14.91;67.40;98555.38;5116573;28;20029;-67
2024/02/26 12:56:33;;;;;;;;;;;;;;;15.16;66.17;98563.88;5117000;28;20026;-67
2024/02/26 12:59:02;;;;;;;;;;;;;;;15.00;66.27;98559.34;5115282;28;19924;-67
2024/02/26 13:01:31;;;;;;;;;;;;;;;14.88;66.30;98570.91;5117280;27;20088;-68
2024/02/26 13:04:06;;;;;;;;;;;;;;;14.59;66.48;98563.38;5115859;28;19926;-67